Time;durP1;ratioP1;P1;durP2;ratioP2;P2;SDS_P1;SDS_P2;PMS_P1;PMS_P2;Temp;Humidity;BMP_temperature;BMP_pressure;BME280_temperature;BME280_humidity;BME280_pressure;Samples;Min_cycle;Max_cycle;Signal;HPM_P1;HPM_P2
2023/08/05 00:01:46;;;;;;;4.87;3.53;;;17.30;99.90;;;;;;5038336;28;20423;-86
2023/08/05 00:04:15;;;;;;;3.83;3.33;;;17.30;99.90;;;;;;5035350;28;20486;-89
2023/08/05 00:06:50;;;;;;;3.03;2.73;;;17.30;99.90;;;;;;5025902;28;20526;-89
2023/08/05 00:09:17;;;;;;;4.77;2.97;;;;;;;;;;5023950;28;20471;-89
2023/08/05 00:11:46;;;;;;;3.93;2.90;;;17.30;99.90;;;;;;5025267;28;20490;-88
2023/08/05 00:14:14;;;;;;;4.47;3.43;;;;;;;;;;5024863;28;20446;-87
2023/08/05 00:16:41;;;;;;;7.30;4.63;;;17.30;1.00;;;;;;5026157;28;20474;-88
2023/08/05 00:19:09;;;;;;;8.17;5.47;;;;;;;;;;5026681;28;20470;-88
2023/08/05 00:21:38;;;;;;;6.10;5.17;;;17.30;1.00;;;;;;5022263;28;20489;-88
2023/08/05 00:24:12;;;;;;;8.97;4.00;;;17.30;1.00;;;;;;5021448;28;20489;-89
2023/08/05 00:29:22;;;;;;;3.10;2.87;;;;;;;;;;5019770;28;21062;-90
2023/08/05 00:31:49;;;;;;;4.00;3.70;;;17.00;99.90;;;;;;5020490;28;20458;-90
2023/08/05 00:34:16;;;;;;;5.50;3.97;;;;;;;;;;5020049;28;20858;-89
2023/08/05 00:36:47;;;;;;;5.67;4.00;;;17.10;1.00;;;;;;5023287;28;20766;-89
2023/08/05 00:39:16;;;;;;;5.27;4.30;;;;;;;;;;5037967;28;20427;-89
2023/08/05 00:41:47;;;;;;;4.40;3.97;;;16.90;1.00;;;;;;5033393;28;20542;-89
2023/08/05 00:44:24;;;;;;;5.83;5.23;;;16.80;1.00;;;;;;5022832;28;20483;-89
2023/08/05 00:46:56;;;;;;;5.10;4.10;;;16.80;1.00;;;;;;5020427;28;20481;-89
2023/08/05 00:49:28;;;;;;;6.97;4.13;;;;;;;;;;5019334;28;20489;-88
2023/08/05 00:52:02;;;;;;;3.77;3.47;;;16.80;16.60;;;;;;5021422;28;20876;-88
2023/08/05 00:54:40;;;;;;;6.20;4.07;;;;;;;;;;5020101;28;20467;-88
2023/08/05 00:57:07;;;;;;;4.37;3.27;;;16.80;1.00;;;;;;5019469;28;20472;-88
2023/08/05 00:59:39;;;;;;;5.93;3.50;;;16.80;57.40;;;;;;5031385;28;20436;-88
2023/08/05 01:02:10;;;;;;;4.40;3.27;;;16.80;86.50;;;;;;5028394;28;20474;-88
2023/08/05 01:04:38;;;;;;;3.50;3.20;;;;;;;;;;5031664;28;20455;-87
2023/08/05 01:07:13;;;;;;;4.13;3.73;;;16.50;1.00;;;;;;5031909;28;20471;-88
2023/08/05 01:09:45;;;;;;;4.30;3.57;;;16.60;92.60;;;;;;5037944;28;20489;-88
2023/08/05 01:12:12;;;;;;;5.33;4.27;;;;;;;;;;5025047;28;20453;-87
2023/08/05 01:14:45;;;;;;;4.47;3.47;;;16.60;99.90;;;;;;5035010;28;20461;-88
2023/08/05 01:17:17;;;;;;;6.40;5.47;;;;;;;;;;5030061;28;20513;-88
2023/08/05 01:20:06;;;;;;;7.43;4.40;;;16.50;1.00;;;;;;5020671;28;20973;-88
2023/08/05 01:22:48;;;;;;;5.97;3.83;;;16.50;1.00;;;;;;5020126;28;20448;-88
2023/08/05 01:25:33;;;;;;;3.40;3.10;;;16.50;99.90;;;;;;5019608;28;20530;-88
2023/08/05 01:28:10;;;;;;;3.10;2.90;;;16.50;1.00;;;;;;5020248;28;20544;-88
2023/08/05 01:30:39;;;;;;;4.33;3.20;;;16.60;99.90;;;;;;5034322;28;20508;-88
2023/08/05 01:33:09;;;;;;;3.30;3.00;;;16.60;77.90;;;;;;5036805;28;20450;-87
2023/08/05 01:35:37;;;;;;;3.57;3.30;;;;;;;;;;5035767;28;20439;-88
2023/08/05 01:38:07;;;;;;;2.70;2.50;;;16.70;99.90;;;;;;5032772;28;20458;-88
2023/08/05 01:40:40;;;;;;;2.73;2.53;;;16.90;99.90;;;;;;5023914;28;20458;-88
2023/08/05 01:43:21;;;;;;;3.80;2.97;;;16.70;1.00;;;;;;5019506;28;20554;-88
2023/08/05 01:45:53;;;;;;;3.80;2.83;;;;;;;;;;5021795;28;20812;-88
2023/08/05 01:48:23;;;;;;;4.23;2.77;;;;;;;;;;5019025;28;20552;-88
2023/08/05 01:50:54;;;;;;;3.60;2.70;;;;;;;;;;5019246;28;20449;-88
2023/08/05 01:53:21;;;;;;;3.83;2.80;;;;;;;;;;5018801;28;20470;-88
2023/08/05 01:56:00;;;;;;;3.60;3.07;;;17.10;99.90;;;;;;5018048;28;20461;-87
2023/08/05 01:58:27;;;;;;;3.83;3.17;;;16.70;99.90;;;;;;5017865;28;20452;-88
2023/08/05 02:01:09;;;;;;;3.50;3.30;;;16.70;1.00;;;;;;5018282;28;20448;-88
2023/08/05 02:03:36;;;;;;;3.90;3.30;;;;;;;;;;5032153;28;20459;-88
2023/08/05 02:06:07;;;;;;;2.50;2.30;;;;;;;;;;5037339;28;20499;-88
2023/08/05 02:08:35;;;;;;;3.30;3.00;;;;;;;;;;5021901;28;20469;-88
2023/08/05 02:11:08;;;;;;;3.57;3.27;;;16.50;1.00;;;;;;5019374;28;20448;-88
2023/08/05 02:13:37;;;;;;;5.50;4.20;;;;;;;;;;5017810;28;20436;-88
2023/08/05 02:16:08;;;;;;;3.80;3.47;;;;;;;;;;5018071;28;20468;-88
2023/08/05 02:18:35;;;;;;;3.63;3.20;;;;;;;;;;5018068;28;20934;-88
2023/08/05 02:21:03;;;;;;;2.87;2.67;;;;;;;;;;5028136;28;20450;-87
2023/08/05 02:23:37;;;;;;;4.97;3.40;;;16.50;1.00;;;;;;5023920;28;20448;-88
2023/08/05 02:26:37;;;;;;;3.77;3.20;;;16.50;99.90;;;;;;5022138;28;20508;-87
2023/08/05 02:29:05;;;;;;;4.13;3.83;;;;;;;;;;5018425;28;20540;-88
2023/08/05 02:31:32;;;;;;;5.57;3.30;;;;;;;;;;5018010;28;20496;-88
2023/08/05 02:34:04;;;;;;;4.60;3.77;;;16.20;1.00;;;;;;5018121;28;20527;-88
2023/08/05 02:36:34;;;;;;;4.20;3.80;;;;;;;;;;5018906;28;20476;-88
2023/08/05 02:39:02;;;;;;;4.60;3.33;;;;;;;;;;5028392;28;20444;-87
2023/08/05 02:41:31;;;;;;;4.07;3.67;;;16.30;99.90;;;;;;5029343;28;20482;-87
2023/08/05 02:44:01;;;;;;;5.07;3.60;;;16.20;85.60;;;;;;5038149;28;20468;-87
2023/08/05 02:46:28;;;;;;;6.90;4.80;;;16.20;52.80;;;;;;5029385;28;20456;-88
2023/08/05 02:48:57;;;;;;;4.77;3.33;;;12.40;99.90;;;;;;5019600;28;20487;-88
2023/08/05 02:51:24;;;;;;;4.80;3.60;;;15.90;99.90;;;;;;5019092;28;20436;-88
2023/08/05 02:53:51;;;;;;;4.27;3.87;;;;;;;;;;5019729;28;20460;-88
2023/08/05 02:56:26;;;;;;;8.20;4.40;;;;;;;;;;5017230;28;20479;-89
2023/08/05 02:58:54;;;;;;;5.20;4.27;;;16.00;1.00;;;;;;5022702;28;20448;-88
2023/08/05 03:04:00;;;;;;;5.50;4.30;;;;;;;;;;4345458;26;20474;-90
2023/08/05 03:06:31;;;;;;;4.63;4.20;;;15.80;1.00;;;;;;5015297;28;20451;-90
2023/08/05 03:08:58;;;;;;;5.30;3.90;;;;;;;;;;5015700;28;20903;-91
2023/08/05 03:11:32;;;;;;;4.93;4.30;;;15.70;1.00;;;;;;5015552;28;20439;-91
2023/08/05 03:14:02;;;;;;;5.83;4.80;;;15.80;1.00;;;;;;5015525;28;20573;-90
2023/08/05 03:16:32;;;;;;;4.63;4.23;;;15.70;1.00;;;;;;5017699;28;20933;-91
2023/08/05 03:19:02;;;;;;;5.50;4.83;;;;;;;;;;5027349;28;20495;-90
2023/08/05 03:21:33;;;;;;;4.67;4.23;;;15.60;99.90;;;;;;5038261;28;20453;-90
2023/08/05 03:24:09;;;;;;;4.10;3.80;;;15.60;99.90;;;;;;5031560;28;20455;-90
2023/08/05 03:26:38;;;;;;;7.77;4.80;;;;;;;;;;5017766;28;20454;-90
2023/08/05 03:29:14;;;;;;;9.97;5.40;;;15.60;99.90;;;;;;5016218;28;20493;-90
2023/08/05 03:31:41;;;;;;;7.67;4.57;;;;;;;;;;5015346;28;20984;-90
2023/08/05 03:34:23;;;;;;;4.60;4.20;;;15.60;1.00;;;;;;5015426;28;20444;-91
2023/08/05 03:37:03;;;;;;;9.00;4.63;;;15.50;1.00;;;;;;5015615;28;20463;-92
2023/08/05 03:39:40;;;;;;;10.70;5.03;;;15.60;1.00;;;;;;5016470;28;20482;-92
2023/08/05 03:42:35;;;;;;;5.17;4.73;;;15.60;1.00;;;;;;5020683;28;20479;-91
2023/08/05 03:45:24;;;;;;;4.50;4.10;;;15.60;99.90;;;;;;5032948;28;20448;-90
2023/08/05 03:48:04;;;;;;;5.60;4.30;;;15.60;21.10;;;;;;5039099;28;20474;-90
2023/08/05 03:50:40;;;;;;;5.03;4.50;;;15.60;99.90;;;;;;5040921;28;20482;-90
2023/08/05 03:53:10;;;;;;;7.23;4.50;;;15.70;99.90;;;;;;5041830;28;20451;-90
2023/08/05 03:55:55;;;;;;;4.97;4.47;;;15.70;99.90;;;;;;5040527;28;20448;-91
2023/08/05 03:58:30;;;;;;;6.27;5.00;;;15.50;1.00;;;;;;5035467;28;20470;-91
2023/08/05 04:01:02;;;;;;;7.27;4.27;;;15.60;99.90;;;;;;5033035;28;20435;-91
2023/08/05 04:03:30;;;;;;;6.20;4.73;;;;;;;;;;5025898;28;20490;-90
2023/08/05 04:05:58;;;;;;;6.70;5.07;;;;;;;;;;5022718;28;20943;-90
2023/08/05 04:08:26;;;;;;;5.50;5.00;;;;;;;;;;5019890;28;20455;-90
2023/08/05 04:10:53;;;;;;;5.80;4.73;;;15.50;1.00;;;;;;5018850;28;20862;-90
2023/08/05 04:13:29;;;;;;;6.73;4.87;;;15.50;99.90;;;;;;5019657;28;20471;-91
2023/08/05 04:15:59;;;;;;;4.97;4.50;;;;;;;;;;5027008;28;20471;-90
2023/08/05 04:18:27;;;;;;;4.67;4.17;;;15.60;99.90;;;;;;5032714;28;20435;-90
2023/08/05 04:20:57;;;;;;;5.00;4.50;;;15.40;99.90;;;;;;5021300;28;20816;-90
2023/08/05 04:23:26;;;;;;;6.73;5.93;;;;;;;;;;5019295;28;20467;-90
2023/08/05 05:48:46;;;;;;;7.00;4.63;;;16.60;1.00;;;;;;5012157;22;20505;-87
2023/08/05 05:51:13;;;;;;;7.73;4.27;;;16.90;1.00;;;;;;5024120;28;20440;-88
2023/08/05 05:53:40;;;;;;;7.60;4.50;;;16.70;99.90;;;;;;5027107;28;20471;-89
2023/08/05 05:56:08;;;;;;;7.00;4.43;;;16.70;99.90;;;;;;5018515;28;20864;-89
2023/08/05 05:58:35;;;;;;;7.37;3.63;;;16.90;99.90;;;;;;5017610;28;21064;-88
2023/08/05 06:01:03;;;;;;;3.67;3.30;;;16.80;1.00;;;;;;5022549;28;20490;-89
2023/08/05 06:03:31;;;;;;;10.40;4.43;;;16.70;1.00;;;;;;5020339;28;20480;-89
2023/08/05 06:06:00;;;;;;;6.10;4.03;;;16.90;99.90;;;;;;5038595;28;20471;-90
2023/08/05 06:08:28;;;;;;;5.57;4.37;;;17.40;1.00;;;;;;5039545;28;20454;-90
2023/08/05 06:10:55;;;;;;;5.97;2.97;;;17.10;99.90;;;;;;5022502;28;20532;-89
2023/08/05 06:13:22;;;;;;;4.00;3.70;;;17.20;1.00;;;;;;5020040;28;20955;-89
2023/08/05 06:15:49;;;;;;;9.00;4.00;;;17.30;99.90;;;;;;5020028;28;20443;-89
2023/08/05 06:18:16;;;;;;;4.10;3.70;;;17.40;1.00;;;;;;5027362;28;20480;-89
2023/08/05 06:20:43;;;;;;;6.00;3.60;;;17.40;1.00;;;;;;5030547;28;20456;-89
2023/08/05 06:23:11;;;;;;;7.63;4.27;;;17.40;1.00;;;;;;5035241;28;20461;-89
2023/08/05 06:25:40;;;;;;;8.07;3.57;;;17.40;1.00;;;;;;5024158;28;20485;-89
2023/08/05 06:28:07;;;;;;;8.60;7.10;;;17.80;1.00;;;;;;5020652;28;20469;-88
2023/08/05 06:30:35;;;;;;;3.77;3.00;;;17.60;1.00;;;;;;5020215;28;20920;-89
2023/08/05 06:33:02;;;;;;;3.27;2.97;;;17.80;1.00;;;;;;5018871;28;20449;-89
2023/08/05 06:35:29;;;;;;;7.33;3.53;;;17.60;1.00;;;;;;5020843;28;20908;-89
2023/08/05 06:37:56;;;;;;;4.97;3.43;;;17.60;99.90;;;;;;5025018;28;20499;-88
2023/08/05 06:40:28;;;;;;;4.30;3.13;;;17.60;99.90;;;;;;5022674;28;20479;-88
2023/08/05 06:42:56;;;;;;;8.60;3.47;;;17.70;1.00;;;;;;5020182;28;20485;-88
2023/08/05 06:45:25;;;;;;;4.10;3.33;;;17.80;99.90;;;;;;5018795;28;20943;-89
2023/08/05 06:47:53;;;;;;;5.90;3.53;;;;;;;;;;5019575;28;20835;-90
2023/08/05 06:50:20;;;;;;;6.23;3.40;;;17.70;99.90;;;;;;5017961;28;20496;-89
2023/08/05 06:52:47;;;;;;;4.53;3.90;;;17.60;99.90;;;;;;5020600;28;20479;-89
2023/08/05 06:55:17;;;;;;;3.73;3.33;;;17.80;99.90;;;;;;5034043;28;20435;-89
2023/08/05 06:57:48;;;;;;;5.80;3.80;;;17.90;1.00;;;;;;5038820;28;20477;-91
2023/08/05 07:00:15;;;;;;;4.07;3.13;;;18.00;1.00;;;;;;5033246;28;20441;-89
2023/08/05 07:02:42;;;;;;;3.97;3.20;;;17.80;1.00;;;;;;5036902;28;20459;-90
2023/08/05 07:05:10;;;;;;;5.60;3.57;;;17.70;99.90;;;;;;5038599;28;20435;-90
2023/08/05 07:07:37;;;;;;;8.77;3.43;;;;;;;;;;5036075;28;20498;-89
2023/08/05 07:10:07;;;;;;;7.93;3.60;;;18.00;99.90;;;;;;5027452;28;20532;-89
2023/08/05 07:12:37;;;;;;;8.90;4.60;;;18.10;1.00;;;;;;5025949;28;20454;-89
2023/08/05 07:15:06;;;;;;;5.40;3.63;;;18.10;99.90;;;;;;5024941;28;20477;-89
2023/08/05 07:17:33;;;;;;;7.23;4.50;;;18.10;1.00;;;;;;5024334;28;20510;-89
2023/08/05 07:20:00;;;;;;;4.50;3.30;;;18.00;1.00;;;;;;5023218;28;20530;-89
2023/08/05 07:22:27;;;;;;;3.80;3.50;;;18.10;1.00;;;;;;5029317;28;20518;-88
2023/08/05 07:24:55;;;;;;;4.77;3.37;;;18.10;1.00;;;;;;5032711;28;20489;-90
2023/08/05 07:27:23;;;;;;;5.47;3.87;;;18.20;99.90;;;;;;5025129;28;20513;-89
2023/08/05 07:29:50;;;;;;;6.90;4.20;;;18.10;1.00;;;;;;5026100;28;20482;-90
2023/08/05 07:32:21;;;;;;;5.00;4.07;;;18.10;1.00;;;;;;5024636;28;20447;-89
2023/08/05 07:34:53;;;;;;;3.37;3.07;;;18.40;99.90;;;;;;5026262;28;20436;-89
2023/08/05 07:37:20;;;;;;;4.07;3.77;;;18.10;99.90;;;;;;5026037;28;20482;-89
2023/08/05 07:39:48;;;;;;;4.27;3.73;;;18.30;1.00;;;;;;5025205;28;20503;-90
2023/08/05 07:42:18;;;;;;;6.40;3.80;;;18.10;99.90;;;;;;5023843;28;20455;-90
2023/08/05 07:44:46;;;;;;;4.00;2.93;;;18.00;1.00;;;;;;5023686;28;20420;-88
2023/08/05 07:47:15;;;;;;;4.47;2.83;;;18.30;99.90;;;;;;5026443;28;20542;-89
2023/08/05 07:49:44;;;;;;;5.00;4.00;;;18.10;1.00;;;;;;5025974;28;20538;-89
2023/08/05 07:52:11;;;;;;;4.07;3.67;;;17.90;99.90;;;;;;5029442;28;20487;-88
2023/08/05 07:54:53;;;;;;;4.50;3.57;;;18.60;99.90;;;;;;5029346;28;20435;-88
2023/08/05 07:57:26;;;;;;;9.73;4.37;;;18.30;98.80;;;;;;5027457;28;20475;-88
2023/08/05 07:59:55;;;;;;;7.10;4.43;;;;;;;;;;5024762;28;20440;-88
2023/08/05 08:02:27;;;;;;;4.53;4.13;;;18.10;1.00;;;;;;5032832;28;20438;-90
2023/08/05 08:04:58;;;;;;;6.70;4.07;;;18.20;1.00;;;;;;5040994;28;20447;-89
2023/08/05 08:07:25;;;;;;;4.00;3.43;;;;;;;;;;5035313;28;20468;-89
2023/08/05 08:09:54;;;;;;;6.07;4.07;;;18.30;7.80;;;;;;5028295;28;20542;-89
2023/08/05 08:12:27;;;;;;;5.27;3.70;;;18.50;99.90;;;;;;5028677;28;20818;-89
2023/08/05 08:15:16;;;;;;;8.70;4.23;;;18.50;99.90;;;;;;5033903;28;20776;-89
2023/08/05 08:17:50;;;;;;;4.17;3.40;;;;;;;;;;5027467;28;20507;-88
2023/08/05 08:24:55;;;;;;;6.63;4.13;;;18.70;99.90;;;;;;4926732;29;20495;-89
2023/08/05 08:28:11;;;;;;;4.33;3.93;;;18.60;1.00;;;;;;4883285;29;20492;-90
2023/08/05 08:31:07;;;;;;;6.50;3.47;;;18.80;1.00;;;;;;4967255;29;20569;-89
2023/08/05 08:33:46;;;;;;;3.80;3.37;;;18.60;99.90;;;;;;4953489;28;20545;-89
2023/08/05 08:37:05;;;;;;;4.30;3.40;;;18.50;99.90;;;;;;4961848;29;20414;-89
2023/08/05 08:39:56;;;;;;;3.70;3.40;;;18.70;1.00;;;;;;4970524;28;20530;-90
2023/08/05 08:42:56;;;;;;;;;;;;;;;;;;;;;
2023/08/05 08:51:53;;;;;;;12.73;6.00;;;18.60;62.80;;;;;;5024452;28;20483;-90
2023/08/05 08:54:52;;;;;;;8.40;3.77;;;18.70;52.60;;;;;;5022979;28;20467;-89
2023/08/05 08:57:25;;;;;;;4.77;3.40;;;18.80;99.90;;;;;;4990857;28;20563;-90
2023/08/05 09:00:08;;;;;;;7.13;3.97;;;18.80;98.70;;;;;;5036069;28;20468;-90
2023/08/05 09:02:48;;;;;;;4.93;3.70;;;18.70;99.90;;;;;;5040742;28;20447;-92
2023/08/05 09:05:29;;;;;;;4.97;4.07;;;18.90;99.90;;;;;;5040481;28;20455;-91
2023/08/05 09:10:43;;;;;;;4.23;3.50;;;;;;;;;;5035342;28;20471;-90
2023/08/05 09:13:33;;;;;;;4.63;3.60;;;19.10;99.90;;;;;;5040020;28;20470;-90
2023/08/05 09:16:01;;;;;;;5.97;3.47;;;;;;;;;;5028181;28;20455;-90
2023/08/05 09:18:47;;;;;;;3.80;3.50;;;19.00;99.90;;;;;;5022946;28;20480;-89
2023/08/05 09:25:27;;;;;;;4.27;3.87;;;19.10;55.80;;;;;;5018826;28;20932;-90
2023/08/05 09:28:18;;;;;;;5.73;4.10;;;19.20;1.00;;;;;;5022004;28;20551;-89
2023/08/05 09:30:57;;;;;;;3.10;2.80;;;19.10;1.00;;;;;;5021763;28;20843;-89
2023/08/05 09:33:32;;;;;;;6.10;3.60;;;19.20;1.00;;;;;;5021844;28;20439;-90
2023/08/05 09:36:38;;;;;;;3.03;2.80;;;18.00;1.00;;;;;;5023325;28;20471;-89
2023/08/05 09:39:30;;;;;;;3.23;2.37;;;19.50;1.00;;;;;;5036424;28;20451;-89
2023/08/05 09:49:17;;;;;;;4.23;2.60;;;19.90;1.00;;;;;;4910469;29;20476;-89
2023/08/05 09:51:45;;;;;;;3.63;2.80;;;;;;;;;;4979779;28;20504;-86
2023/08/05 09:54:15;;;;;;;5.93;3.53;;;19.80;1.00;;;;;;5024796;28;20806;-86
2023/08/05 09:56:45;;;;;;;3.40;3.10;;;19.90;10.40;;;;;;5022442;28;20443;-87
2023/08/05 09:59:14;;;;;;;3.47;3.17;;;19.70;1.00;;;;;;5021608;28;20459;-86
2023/08/05 10:01:41;;;;;;;5.73;3.50;;;19.90;1.00;;;;;;5021945;28;20490;-86
2023/08/05 10:04:12;;;;;;;4.70;3.40;;;20.00;1.00;;;;;;5023492;28;20471;-86
2023/08/05 10:06:40;;;;;;;4.97;3.17;;;20.10;1.00;;;;;;5033757;28;20466;-85
2023/08/05 10:09:08;;;;;;;4.40;2.93;;;20.30;1.00;;;;;;5037231;28;20502;-86
2023/08/05 10:11:37;;;;;;;7.10;4.10;;;20.30;1.00;;;;;;5036602;28;20490;-85
2023/08/05 10:14:06;;;;;;;7.70;3.57;;;20.50;99.90;;;;;;5029434;28;20468;-86
2023/08/05 10:16:33;;;;;;;3.13;2.53;;;20.10;1.00;;;;;;5023193;28;20455;-86
2023/08/05 10:19:00;;;;;;;4.40;2.93;;;20.00;99.90;;;;;;5025026;28;20517;-87
2023/08/05 10:21:40;;;;;;;4.03;3.63;;;20.30;1.00;;;;;;5021933;28;21023;-86
2023/08/05 10:24:08;;;;;;;3.23;2.53;;;20.20;1.00;;;;;;5024864;28;20515;-86
2023/08/05 10:26:45;;;;;;;4.73;2.37;;;20.10;1.00;;;;;;5028263;28;20459;-87
2023/08/05 10:29:30;;;;;;;3.67;3.37;;;20.00;1.00;;;;;;5038945;28;20427;-87
2023/08/05 10:32:14;;;;;;;4.07;2.90;;;20.00;1.00;;;;;;5038827;28;20482;-86
2023/08/05 10:34:41;;;;;;;4.07;2.90;;;20.10;1.00;;;;;;5032867;28;20486;-86
2023/08/05 10:37:08;;;;;;;4.83;3.03;;;20.20;1.00;;;;;;5033620;28;20475;-86
2023/08/05 10:39:44;;;;;;;7.47;3.33;;;20.20;1.00;;;;;;5031536;28;20458;-86
2023/08/05 10:42:36;;;;;;;2.70;2.50;;;20.30;1.00;;;;;;5030686;28;20880;-86
2023/08/05 10:45:10;;;;;;;2.50;2.30;;;20.30;1.00;;;;;;5009273;28;20483;-85
2023/08/05 10:47:47;;;;;;;3.93;2.77;;;20.40;1.00;;;;;;5027871;28;21011;-85
2023/08/05 10:50:15;;;;;;;2.90;2.70;;;20.50;1.00;;;;;;5027408;28;21157;-86
2023/08/05 10:52:42;;;;;;;5.60;3.10;;;20.60;1.00;;;;;;5026500;28;20821;-86
2023/08/05 10:55:11;;;;;;;4.13;3.63;;;20.40;1.00;;;;;;5027547;28;20457;-85
2023/08/05 10:57:48;;;;;;;5.40;3.40;;;20.50;1.00;;;;;;5026875;28;20523;-85
2023/08/05 11:00:21;;;;;;;5.67;3.80;;;20.20;1.00;;;;;;5027177;28;20448;-85
2023/08/05 11:02:49;;;;;;;4.20;3.80;;;20.10;1.00;;;;;;5027198;28;20889;-86
2023/08/05 11:05:16;;;;;;;3.83;2.40;;;20.50;99.90;;;;;;5038215;28;20444;-87
2023/08/05 11:07:44;;;;;;;3.70;2.50;;;20.20;1.00;;;;;;5016590;28;20468;-86
2023/08/05 11:10:12;;;;;;;5.70;2.70;;;20.30;1.00;;;;;;5018733;28;20424;-87
2023/08/05 11:12:39;;;;;;;4.73;2.97;;;20.30;1.00;;;;;;5019020;28;20431;-87
2023/08/05 11:15:19;;;;;;;3.40;2.60;;;20.40;1.00;;;;;;5017280;28;20447;-87
2023/08/05 11:17:55;;;;;;;3.57;3.30;;;20.50;1.00;;;;;;5016683;28;20462;-87
2023/08/05 11:20:31;;;;;;;4.70;2.80;;;20.90;1.00;;;;;;5018345;28;20435;-87
2023/08/05 11:22:58;;;;;;;7.50;3.13;;;;;;;;;;5018329;28;20417;-86
2023/08/05 11:25:25;;;;;;;20.77;11.43;;;20.50;1.00;;;;;;5018534;28;20444;-86
2023/08/05 11:27:53;;;;;;;66.20;30.10;;;20.50;1.00;;;;;;5014552;28;20489;-86
2023/08/05 11:30:21;;;;;;;5.93;3.23;;;20.70;1.00;;;;;;5011572;28;20471;-87
2023/08/05 11:32:55;;;;;;;4.27;2.77;;;20.70;1.00;;;;;;5009499;28;20433;-86
2023/08/05 11:35:22;;;;;;;5.83;3.40;;;20.70;1.00;;;;;;5009195;28;20445;-86
2023/08/05 11:37:51;;;;;;;4.90;3.50;;;20.50;1.00;;;;;;5007103;28;20547;-86
2023/08/05 11:40:18;;;;;;;4.43;3.17;;;20.30;1.00;;;;;;5006951;28;20493;-86
2023/08/05 11:42:45;;;;;;;5.03;3.50;;;20.20;1.00;;;;;;5007183;28;20474;-86
2023/08/05 11:45:13;;;;;;;3.17;2.87;;;20.20;1.00;;;;;;5008166;28;20456;-85
2023/08/05 11:47:41;;;;;;;7.97;3.00;;;20.30;1.00;;;;;;5009100;28;20548;-85
2023/08/05 11:50:11;;;;;;;4.90;3.10;;;20.40;1.00;;;;;;5007066;28;20550;-86
2023/08/05 11:52:39;;;;;;;2.83;2.63;;;20.60;1.00;;;;;;5006214;28;20484;-86
2023/08/05 11:55:07;;;;;;;3.93;2.80;;;20.60;1.00;;;;;;5006205;28;20444;-86
2023/08/05 11:57:34;;;;;;;6.53;2.63;;;20.50;1.00;;;;;;5004373;28;20476;-86
2023/08/05 12:00:06;;;;;;;4.20;2.63;;;20.80;1.00;;;;;;5005253;28;20452;-87
2023/08/05 12:02:35;;;;;;;4.50;3.10;;;20.80;1.00;;;;;;5002261;28;20445;-87
2023/08/05 12:05:03;;;;;;;5.83;5.23;;;20.60;1.00;;;;;;5002822;28;20451;-87
2023/08/05 12:07:31;;;;;;;4.57;4.13;;;20.50;1.00;;;;;;5003527;28;20996;-89
2023/08/05 12:10:04;;;;;;;3.10;2.80;;;20.50;1.00;;;;;;5006319;28;20543;-87
2023/08/05 12:12:31;;;;;;;3.10;2.70;;;20.40;1.00;;;;;;5012702;28;20479;-87
2023/08/05 12:15:09;;;;;;;5.10;3.03;;;20.40;1.00;;;;;;5021566;28;20486;-87
2023/08/05 12:17:36;;;;;;;5.57;3.67;;;20.50;1.00;;;;;;5018426;28;20463;-87
2023/08/05 12:20:09;;;;;;;4.20;2.57;;;20.50;1.00;;;;;;5013080;28;20469;-86
2023/08/05 12:22:37;;;;;;;3.13;2.83;;;20.50;1.00;;;;;;5009728;28;20424;-87
2023/08/05 12:25:05;;;;;;;3.57;3.00;;;20.70;1.00;;;;;;5007423;28;20495;-88
2023/08/05 12:27:32;;;;;;;6.70;2.87;;;20.60;1.00;;;;;;5005614;28;21042;-86
2023/08/05 12:29:58;;;;;;;2.90;2.53;;;20.70;1.00;;;;;;5010261;28;20508;-87
2023/08/05 12:32:25;;;;;;;3.00;2.70;;;20.70;1.00;;;;;;5011818;28;20507;-85
2023/08/05 12:34:52;;;;;;;4.87;2.77;;;20.60;1.00;;;;;;5008584;28;20539;-87
2023/08/05 12:37:20;;;;;;;3.10;2.77;;;20.70;1.00;;;;;;5007620;28;20487;-87
2023/08/05 12:39:48;;;;;;;6.53;2.53;;;20.60;1.00;;;;;;5006689;28;20608;-86
2023/08/05 12:42:15;;;;;;;4.20;2.70;;;20.60;1.00;;;;;;5005890;28;20437;-87
2023/08/05 12:44:42;;;;;;;2.53;2.40;;;20.60;1.00;;;;;;5004726;28;20477;-87
2023/08/05 12:47:08;;;;;;;5.60;2.90;;;20.50;1.00;;;;;;5004295;28;20472;-86
2023/08/05 12:49:36;;;;;;;4.10;3.73;;;20.50;1.00;;;;;;5004435;28;20452;-87
2023/08/05 12:52:04;;;;;;;3.00;2.80;;;20.60;1.00;;;;;;5005902;28;20568;-87
2023/08/05 12:54:31;;;;;;;4.10;3.63;;;20.60;1.00;;;;;;5005348;28;20452;-87
2023/08/05 12:56:59;;;;;;;3.90;3.60;;;20.50;99.90;;;;;;5004684;28;20447;-87
2023/08/05 12:59:26;;;;;;;6.80;2.80;;;20.80;1.00;;;;;;5003825;28;20514;-87
2023/08/05 13:01:53;;;;;;;2.30;2.10;;;20.80;1.00;;;;;;5003917;28;20486;-87
2023/08/05 13:04:20;;;;;;;3.30;2.80;;;20.60;1.00;;;;;;5003091;28;20456;-87
2023/08/05 13:06:47;;;;;;;3.73;3.10;;;20.70;1.00;;;;;;5005420;28;20512;-86
2023/08/05 13:09:13;;;;;;;5.57;2.60;;;20.80;1.00;;;;;;5010108;28;20491;-86
2023/08/05 13:11:40;;;;;;;3.97;3.10;;;20.60;1.00;;;;;;5009846;28;20459;-86
2023/08/05 13:14:08;;;;;;;2.37;2.17;;;20.60;1.00;;;;;;5007329;28;20460;-87
2023/08/05 13:16:35;;;;;;;3.10;2.90;;;;;;;;;;5015626;28;20456;-86
2023/08/05 13:19:03;;;;;;;3.30;3.00;;;21.30;1.00;;;;;;5013951;28;20480;-86
2023/08/05 13:21:30;;;;;;;2.60;2.40;;;20.80;1.00;;;;;;5002047;28;20468;-86
2023/08/05 13:23:57;;;;;;;4.70;3.90;;;20.70;1.00;;;;;;5003025;28;20452;-87
2023/08/05 13:26:23;;;;;;;4.20;3.80;;;20.80;1.00;;;;;;5002457;28;20455;-88
2023/08/05 13:28:50;;;;;;;3.20;3.00;;;20.70;1.00;;;;;;5001605;28;20506;-87
2023/08/05 13:31:19;;;;;;;5.77;3.50;;;20.70;1.00;;;;;;5001393;28;20588;-87
2023/08/05 13:33:45;;;;;;;3.40;3.10;;;20.70;1.00;;;;;;5001930;28;20455;-87
2023/08/05 13:36:12;;;;;;;7.70;5.00;;;20.70;99.90;;;;;;5000145;28;20488;-87
2023/08/05 13:38:39;;;;;;;6.43;5.60;;;20.80;99.90;;;;;;5000085;28;20479;-87
2023/08/05 13:41:06;;;;;;;7.07;5.80;;;20.70;1.00;;;;;;4999477;28;20889;-87
2023/08/05 13:43:33;;;;;;;7.33;6.43;;;20.80;99.90;;;;;;4999545;28;20452;-87
2023/08/05 13:46:02;;;;;;;22.80;13.23;;;20.80;1.00;;;;;;4999865;28;20459;-87
2023/08/05 13:48:32;;;;;;;4.10;3.63;;;20.90;99.90;;;;;;5000266;28;20477;-87
2023/08/05 13:51:02;;;;;;;3.40;2.63;;;21.00;1.00;;;;;;5000167;28;20475;-87
2023/08/05 13:53:29;;;;;;;4.03;3.20;;;21.00;1.00;;;;;;5010820;28;20506;-87
2023/08/05 13:55:56;;;;;;;6.17;3.27;;;21.40;99.90;;;;;;5019425;28;20501;-85
2023/08/05 13:58:23;;;;;;;3.00;2.80;;;21.00;1.00;;;;;;5020101;28;20452;-85
2023/08/05 14:00:50;;;;;;;3.87;3.20;;;21.10;40.30;;;;;;5019943;28;20437;-86
2023/08/05 14:03:17;;;;;;;3.40;2.50;;;21.20;1.00;;;;;;5019493;28;20471;-86
2023/08/05 14:05:45;;;;;;;3.23;2.93;;;21.10;1.00;;;;;;5019751;28;20448;-86
2023/08/05 14:08:12;;;;;;;5.23;3.27;;;21.20;1.00;;;;;;5010658;28;20461;-87
2023/08/05 14:10:38;;;;;;;3.57;2.90;;;21.00;1.00;;;;;;5006619;28;20463;-87
2023/08/05 14:13:05;;;;;;;3.50;3.20;;;21.00;1.00;;;;;;5004748;28;20490;-87
2023/08/05 14:15:34;;;;;;;6.50;3.90;;;21.10;1.00;;;;;;5005997;28;20453;-86
2023/08/05 14:18:01;;;;;;;4.23;3.63;;;21.10;1.00;;;;;;5009112;28;20515;-88
2023/08/05 14:20:28;;;;;;;4.03;3.63;;;21.10;1.00;;;;;;4999964;28;20477;-88
2023/08/05 14:22:58;;;;;;;4.23;3.90;;;21.20;1.00;;;;;;5012652;28;20559;-87
2023/08/05 14:25:25;;;;;;;2.83;2.50;;;21.10;1.00;;;;;;4999782;28;20446;-87
2023/08/05 14:27:52;;;;;;;3.00;2.70;;;21.10;1.00;;;;;;5000186;28;20468;-88
2023/08/05 14:30:18;;;;;;;5.97;4.60;;;20.90;1.00;;;;;;4999472;28;20543;-87
2023/08/05 14:32:45;;;;;;;9.37;7.53;;;21.00;1.00;;;;;;4998997;28;20488;-87
2023/08/05 14:35:12;;;;;;;5.93;3.83;;;21.00;1.00;;;;;;4999049;28;20527;-86
2023/08/05 14:37:39;;;;;;;3.50;3.20;;;21.30;99.90;;;;;;5001136;28;20476;-87
2023/08/05 14:40:09;;;;;;;3.40;3.10;;;21.10;1.00;;;;;;4999975;28;21024;-87
2023/08/05 14:42:36;;;;;;;4.47;4.07;;;21.20;26.00;;;;;;5000028;28;20953;-87
2023/08/05 14:45:03;;;;;;;4.40;4.00;;;21.00;1.00;;;;;;5001258;28;20448;-87
2023/08/05 14:47:30;;;;;;;4.40;4.00;;;21.00;1.00;;;;;;4999404;28;20520;-87
2023/08/05 14:49:56;;;;;;;6.80;4.10;;;20.70;99.90;;;;;;5005567;28;20521;-86
2023/08/05 14:52:23;;;;;;;13.90;9.70;;;21.00;1.00;;;;;;5005383;28;20583;-88
2023/08/05 14:54:52;;;;;;;5.87;5.27;;;21.10;99.90;;;;;;5000580;28;20452;-86
2023/08/05 14:57:20;;;;;;;4.20;3.50;;;21.10;99.90;;;;;;5000037;28;20471;-87
2023/08/05 14:59:51;;;;;;;3.50;3.20;;;21.00;1.00;;;;;;4999388;28;20463;-87
2023/08/05 15:02:18;;;;;;;4.53;3.33;;;21.00;1.00;;;;;;5000293;28;20470;-87
2023/08/05 15:04:45;;;;;;;4.80;3.03;;;20.90;1.00;;;;;;5002013;28;20542;-87
2023/08/05 15:07:12;;;;;;;8.50;3.40;;;21.00;1.00;;;;;;4999462;28;20568;-87
2023/08/05 15:09:39;;;;;;;4.10;2.77;;;21.00;1.00;;;;;;4999776;28;21012;-86
2023/08/05 15:12:06;;;;;;;3.43;3.13;;;20.80;1.00;;;;;;5003607;28;20688;-86
2023/08/05 15:14:34;;;;;;;3.13;2.37;;;20.80;1.00;;;;;;5015157;28;20516;-87
2023/08/05 15:17:01;;;;;;;5.93;3.20;;;20.80;1.00;;;;;;5018619;28;20491;-84
2023/08/05 15:19:28;;;;;;;3.93;3.53;;;20.90;99.90;;;;;;5016450;28;20491;-87
2023/08/05 15:21:55;;;;;;;4.80;4.30;;;21.00;99.90;;;;;;5005639;28;20444;-87
2023/08/05 15:24:22;;;;;;;7.27;6.07;;;21.00;99.90;;;;;;5016500;28;20475;-87